Visit the IPS Meteostar Home Page IPSM China Lake Naval Air Facility FORECAST

China Lake, California

82

100

99

99

99

99

99

100

74
74
73
73
73
72
72

3 miles away at China Lake Naval Air Facility 11:56 GMT

Weather:

Clear

Wind:

S 10 mph

Temperature:

82 ° F

Pressure:

29.80

Dew Point:

35 ° F

Relative Humidity:

18

Feels Like:

80 ° F

Visibility:

10 miles


Aviation Observations:

KNID 211156Z AUTO 18009KT 10SM CLR 28/02 A2986 RMK AO2 SLP082 T02780017 10328 20278 53003 $ =

National Weather Service Forecast:
Indian Wells Valley

indian wells valley-
500 AM PDT TUE AUG 21 2018

TODAY

Sunny, breezy. Highs 95 to 104. Southwest winds 15 to 25 mph.

TONIGHT

Clear, breezy. Lows 71 to 77. Southwest winds 15 to 25 mph with gusts to around 40 mph.

WEDNESDAY

Sunny. Highs 94 to 104. Southwest winds 10 to 15 mph.

WEDNESDAY NIGHT

Clear. Lows 70 to 76. West winds 10 to 20 mph with gusts to around 35 mph.

THURSDAY

Sunny. Highs 94 to 103. Southwest winds 10 to 15 mph.

THURSDAY NIGHT THROUGH SATURDAY

Clear. Lows 69 to 76. Highs 94 to 103.

SATURDAY NIGHT THROUGH SUNDAY NIGHT

Mostly clear. Breezy. Lows 69 to 75. Highs 94 to 103.

MONDAY

Sunny, breezy. Highs 95 to 104.
temperature / precipitation
inyokern 102 76 101 / 0 0 0
ridgecrest 104 71 103 / 0 0 0


Visit the IPS Meteostar Home Page